Time;durP1;ratioP1;P1;durP2;ratioP2;P2;SDS_P1;SDS_P2;PMS_P1;PMS_P2;Temp;Humidity;BMP_temperature;BMP_pressure;BME280_temperature;BME280_humidity;BME280_pressure;Samples;Min_cycle;Max_cycle;Signal;HPM_P1;HPM_P2
2022/07/30 00:00:06;;;;;;;8.33;5.40;;;;;;;;;;5071224;28;20575;-54
2022/07/30 00:02:32;;;;;;;6.60;5.27;;;;;;;;;;5068854;28;20439;-54
2022/07/30 00:04:58;;;;;;;5.60;4.40;;;;;;;;;;5051731;28;20977;-54
2022/07/30 00:07:23;;;;;;;5.50;5.03;;;;;;;;;;5059968;28;20420;-54
2022/07/30 00:09:50;;;;;;;5.93;5.33;;;;;;;;;;5062527;28;20526;-54
2022/07/30 00:12:16;;;;;;;7.10;5.57;;;;;;;;;;5051154;28;20433;-54
2022/07/30 00:14:41;;;;;;;8.73;5.03;;;;;;;;;;5057008;28;20496;-54
2022/07/30 00:17:08;;;;;;;7.93;5.27;;;;;;;;;;5071608;28;20980;-54
2022/07/30 00:19:34;;;;;;;8.53;5.77;;;;;;;;;;5067550;28;20999;-54
2022/07/30 00:22:00;;;;;;;6.17;5.57;;;;;;;;;;5061432;28;20382;-53
2022/07/30 00:24:26;;;;;;;7.20;5.10;;;;;;;;;;5066657;28;20416;-54
2022/07/30 00:26:52;;;;;;;8.30;5.37;;;;;;;;;;5052525;28;20413;-54
2022/07/30 00:29:18;;;;;;;9.90;5.83;;;;;;;;;;5051613;28;20467;-54
2022/07/30 00:31:44;;;;;;;5.57;5.10;;;;;;;;;;5055079;28;20558;-54
2022/07/30 00:34:12;;;;;;;7.07;5.23;;;;;;;;;;5071244;28;20497;-54
2022/07/30 00:36:38;;;;;;;6.97;6.27;;;;;;;;;;5051605;28;20477;-54
2022/07/30 00:39:04;;;;;;;10.80;5.70;;;;;;;;;;5051445;28;20441;-53
2022/07/30 00:41:30;;;;;;;5.90;5.37;;;;;;;;;;5067272;28;20456;-53
2022/07/30 00:43:56;;;;;;;6.47;5.87;;;;;;;;;;5070525;28;20414;-53
2022/07/30 00:46:22;;;;;;;86.20;8.80;;;;;;;;;;5071205;28;20410;-53
2022/07/30 00:48:48;;;;;;;2.50;1.10;;;;;;;;;;5056167;28;20832;-53
2022/07/30 00:51:15;;;;;;;411.13;61.30;;;;;;;;;;5053555;28;20415;-53
2022/07/30 00:53:44;;;;;;;6.80;6.10;;;;;;;;;;5071253;28;20815;-54
2022/07/30 00:56:09;;;;;;;275.43;187.33;;;;;;;;;;5068218;28;20419;-53
2022/07/30 00:58:35;;;;;;;6.50;5.90;;;;;;;;;;5050853;28;20514;-53
2022/07/30 01:01:01;;;;;;;278.07;224.37;;;;;;;;;;5068292;28;20431;-53
2022/07/30 01:03:28;;;;;;;372.70;187.37;;;;;;;;;;5054770;28;20469;-53
2022/07/30 01:05:54;;;;;;;6.40;5.80;;;;;;;;;;5062870;28;20465;-53
2022/07/30 01:08:20;;;;;;;7.17;6.50;;;;;;;;;;5073709;28;20393;-53
2022/07/30 01:10:45;;;;;;;6.67;6.07;;;;;;;;;;5058757;28;20809;-53
2022/07/30 01:13:12;;;;;;;9.40;7.33;;;;;;;;;;5060326;28;20413;-53
2022/07/30 01:15:38;;;;;;;7.40;6.70;;;;;;;;;;5056791;28;20386;-54
2022/07/30 01:18:05;;;;;;;7.40;6.60;;;;;;;;;;5070997;28;20388;-53
2022/07/30 01:20:34;;;;;;;7.07;6.40;;;;;;;;;;5059799;28;20464;-53
2022/07/30 01:23:15;;;;;;;7.70;6.40;;;;;;;;;;5068195;28;20389;-53
2022/07/30 01:25:44;;;;;;;11.27;6.70;;;;;;;;;;5059530;28;20501;-51
2022/07/30 01:28:13;;;;;;;8.23;6.60;;;;;;;;;;5074649;28;20467;-51
2022/07/30 01:30:40;;;;;;;7.97;7.17;;;;;;;;;;5069290;28;20746;-51
2022/07/30 01:33:07;;;;;;;8.17;6.87;;;;;;;;;;5059877;28;20418;-51
2022/07/30 01:35:34;;;;;;;7.13;6.43;;;;;;;;;;5074000;28;20414;-52
2022/07/30 01:38:01;;;;;;;8.00;6.57;;;;;;;;;;5062405;28;20491;-51
2022/07/30 01:40:28;;;;;;;10.13;7.13;;;;;;;;;;5068823;28;20453;-51
2022/07/30 01:42:57;;;;;;;7.10;6.47;;;;;;;;;;5055711;28;20888;-51
2022/07/30 01:45:23;;;;;;;7.83;7.00;;;;;;;;;;5065077;28;20502;-51
2022/07/30 01:47:51;;;;;;;10.63;6.20;;;;;;;;;;5057147;28;20414;-51
2022/07/30 01:50:17;;;;;;;8.30;7.40;;;;;;;;;;5056415;22;20501;-51
2022/07/30 01:52:45;;;;;;;8.20;7.40;;;;;;;;;;5032495;28;20444;-53
2022/07/30 01:55:14;;;;;;;9.47;7.20;;;;;;;;;;5033831;28;20390;-51
2022/07/30 01:57:40;;;;;;;7.97;7.27;;;;;;;;;;5020320;28;20482;-51
2022/07/30 02:00:06;;;;;;;9.67;7.80;;;;;;;;;;5020751;28;20501;-51
2022/07/30 02:02:37;;;;;;;7.73;7.03;;;;;;;;;;5033536;28;20425;-51
2022/07/30 02:05:03;;;;;;;9.90;7.37;;;;;;;;;;5033936;28;20397;-51
2022/07/30 02:07:34;;;;;;;7.53;6.93;;;;;;;;;;5033516;28;20885;-52
2022/07/30 02:10:07;;;;;;;7.50;6.63;;;;;;;;;;5032670;28;20932;-51
2022/07/30 02:12:33;;;;;;;10.33;6.93;;;;;;;;;;5030889;28;20480;-53
2022/07/30 02:15:07;;;;;;;7.80;7.00;;;;;;;;;;5032869;28;20914;-51
2022/07/30 02:17:37;;;;;;;9.13;7.77;;;;;;;;;;5033693;28;20430;-53
2022/07/30 02:20:03;;;;;;;7.80;7.10;;;;;;;;;;5032948;28;20467;-52
2022/07/30 02:22:31;;;;;;;10.53;6.97;;;;;;;;;;5033352;28;20402;-51
2022/07/30 02:25:00;;;;;;;9.13;7.30;;;;;;;;;;5033394;28;20390;-53
2022/07/30 02:27:30;;;;;;;8.63;6.90;;;;;;;;;;5032969;28;20423;-52
2022/07/30 02:29:57;;;;;;;10.17;7.33;;;;;;;;;;5032316;28;20418;-53
2022/07/30 02:32:25;;;;;;;7.93;6.53;;;;;;;;;;5033600;28;20414;-51
2022/07/30 02:34:53;;;;;;;10.90;7.17;;;;;;;;;;5033083;28;20497;-52
2022/07/30 02:37:22;;;;;;;7.70;6.40;;;;;;;;;;5033306;28;20907;-51
2022/07/30 02:39:49;;;;;;;7.60;6.90;;;;;;;;;;5031800;28;20454;-54
2022/07/30 02:42:15;;;;;;;7.00;6.30;;;;;;;;;;5033177;28;20448;-51
2022/07/30 02:44:43;;;;;;;12.60;7.90;;;;;;;;;;5031765;28;20426;-51
2022/07/30 02:47:10;;;;;;;8.53;7.73;;;;;;;;;;5033103;28;20858;-51
2022/07/30 02:49:38;;;;;;;8.50;7.30;;;;;;;;;;5032360;28;20482;-51
2022/07/30 02:52:07;;;;;;;8.57;7.60;;;;;;;;;;5032511;28;20394;-53
2022/07/30 02:54:33;;;;;;;7.53;6.83;;;;;;;;;;5032888;28;20476;-52
2022/07/30 02:57:00;;;;;;;8.80;7.90;;;;;;;;;;5032629;28;20384;-52
2022/07/30 02:59:28;;;;;;;8.47;7.50;;;;;;;;;;5032333;28;20477;-51
2022/07/30 03:01:55;;;;;;;12.27;7.00;;;;;;;;;;5032176;28;20426;-52
2022/07/30 03:04:21;;;;;;;8.37;7.57;;;;;;;;;;5032605;28;20873;-51
2022/07/30 03:06:48;;;;;;;9.23;8.10;;;;;;;;;;5032824;28;20859;-51
2022/07/30 03:09:15;;;;;;;8.20;7.40;;;;;;;;;;5032117;28;20416;-51
2022/07/30 03:11:41;;;;;;;16.93;7.77;;;;;;;;;;5031677;28;20412;-52
2022/07/30 03:14:07;;;;;;;8.37;7.57;;;;;;;;;;5031910;28;20503;-51
2022/07/30 03:16:37;;;;;;;7.90;6.90;;;;;;;;;;5031827;28;20907;-53
2022/07/30 03:19:03;;;;;;;9.40;8.33;;;;;;;;;;5032279;28;20418;-51
2022/07/30 03:21:32;;;;;;;8.50;7.63;;;;;;;;;;5031285;28;20393;-51
2022/07/30 03:23:58;;;;;;;8.63;7.83;;;;;;;;;;5031160;28;20384;-51
2022/07/30 03:26:30;;;;;;;8.13;7.33;;;;;;;;;;5032142;28;20389;-52
2022/07/30 03:28:56;;;;;;;8.67;7.63;;;;;;;;;;5031833;28;21127;-51
2022/07/30 03:31:22;;;;;;;10.73;8.27;;;;;;;;;;5031608;28;20397;-53
2022/07/30 03:33:48;;;;;;;8.90;8.00;;;;;;;;;;5032140;28;20427;-52
2022/07/30 03:36:15;;;;;;;11.17;8.77;;;;;;;;;;5032214;28;20393;-52
2022/07/30 03:38:41;;;;;;;9.73;7.40;;;;;;;;;;5031588;28;20890;-53
2022/07/30 03:41:08;;;;;;;9.10;8.20;;;;;;;;;;5030120;28;20469;-52
2022/07/30 03:43:34;;;;;;;9.13;8.00;;;;;;;;;;5030632;28;20448;-52
2022/07/30 03:46:03;;;;;;;10.50;7.47;;;;;;;;;;5030989;28;20771;-51
2022/07/30 03:48:30;;;;;;;8.43;7.63;;;;;;;;;;5032247;28;20464;-53
2022/07/30 03:50:56;;;;;;;10.10;8.10;;;;;;;;;;5030848;28;20459;-51
2022/07/30 03:53:23;;;;;;;8.87;7.97;;;;;;;;;;5031942;28;20560;-51
2022/07/30 03:55:50;;;;;;;8.53;7.57;;;;;;;;;;5031857;28;20406;-50
2022/07/30 03:58:16;;;;;;;9.13;7.23;;;;;;;;;;5021952;28;20532;-53
2022/07/30 04:00:46;;;;;;;12.87;8.30;;;;;;;;;;5011498;28;21027;-52
2022/07/30 04:03:12;;;;;;;9.30;8.03;;;;;;;;;;5012368;28;20405;-50
2022/07/30 04:05:38;;;;;;;9.37;8.20;;;;;;;;;;5016130;28;20425;-51
2022/07/30 04:08:04;;;;;;;9.53;8.60;;;;;;;;;;5028126;28;20875;-52
2022/07/30 04:10:30;;;;;;;8.77;8.00;;;;;;;;;;5030885;28;20779;-51
2022/07/30 04:12:56;;;;;;;9.80;8.73;;;;;;;;;;5030863;28;20487;-51
2022/07/30 04:15:22;;;;;;;12.23;8.33;;;;;;;;;;5031003;28;20487;-52
2022/07/30 04:17:51;;;;;;;8.87;7.97;;;;;;;;;;5031827;28;20460;-51
2022/07/30 04:20:37;;;;;;;14.30;8.83;;;;;;;;;;5029479;28;20859;-52
2022/07/30 04:23:03;;;;;;;9.23;8.10;;;;;;;;;;5031355;28;20377;-51
2022/07/30 04:25:31;;;;;;;9.70;8.40;;;;;;;;;;5031278;28;20867;-51
2022/07/30 04:27:57;;;;;;;10.90;9.37;;;;;;;;;;5031607;28;20391;-53
2022/07/30 04:30:23;;;;;;;10.33;9.33;;;;;;;;;;5030725;28;20441;-52
2022/07/30 04:32:49;;;;;;;9.20;8.30;;;;;;;;;;5031389;28;20391;-51
2022/07/30 04:35:15;;;;;;;13.57;9.50;;;;;;;;;;5033714;28;20916;-51
2022/07/30 04:37:40;;;;;;;9.87;8.93;;;;;;;;;;5035294;28;20393;-51
2022/07/30 04:40:07;;;;;;;10.67;9.67;;;;;;;;;;5034682;28;20466;-51
2022/07/30 04:42:33;;;;;;;11.40;9.63;;;;;;;;;;5035273;28;20864;-51
2022/07/30 04:44:59;;;;;;;10.20;8.67;;;;;;;;;;5034680;28;20458;-50
2022/07/30 04:47:25;;;;;;;9.47;8.47;;;;;;;;;;5035263;28;20757;-51
2022/07/30 04:49:52;;;;;;;17.03;11.03;;;;;;;;;;5034568;28;20450;-50
2022/07/30 04:52:18;;;;;;;12.40;9.60;;;;;;;;;;5034339;28;20888;-51
2022/07/30 04:54:52;;;;;;;11.77;8.93;;;;;;;;;;5035152;28;20485;-52
2022/07/30 04:57:18;;;;;;;15.80;10.30;;;;;;;;;;5035174;28;20420;-51
2022/07/30 04:59:44;;;;;;;17.03;9.80;;;;;;;;;;5032916;28;20436;-51
2022/07/30 05:02:11;;;;;;;12.60;10.93;;;;;;;;;;5026222;28;20909;-51
2022/07/30 05:04:37;;;;;;;11.03;9.60;;;;;;;;;;5034932;28;20418;-53
2022/07/30 05:07:05;;;;;;;13.93;11.47;;;;;;;;;;5033970;28;20433;-53
2022/07/30 05:09:31;;;;;;;13.37;9.70;;;;;;;;;;5027193;28;20442;-51
2022/07/30 05:11:58;;;;;;;11.60;10.23;;;;;;;;;;5034275;28;20400;-52
2022/07/30 05:14:24;;;;;;;10.30;8.67;;;;;;;;;;5034612;28;20397;-52
2022/07/30 05:16:50;;;;;;;10.83;8.93;;;;;;;;;;5034587;28;20414;-52
2022/07/30 05:19:17;;;;;;;15.47;10.93;;;;;;;;;;5033465;28;20498;-52
2022/07/30 05:21:43;;;;;;;17.47;11.33;;;;;;;;;;5033661;28;20414;-51
2022/07/30 05:24:09;;;;;;;11.50;9.73;;;;;;;;;;5034780;28;20450;-51
2022/07/30 05:26:35;;;;;;;11.67;9.83;;;;;;;;;;5034152;28;20418;-53
2022/07/30 05:29:01;;;;;;;13.77;11.03;;;;;;;;;;5034519;28;20393;-53
2022/07/30 05:31:27;;;;;;;13.10;11.80;;;;;;;;;;5033814;28;20882;-51
2022/07/30 05:33:53;;;;;;;12.83;11.00;;;;;;;;;;5034952;28;20414;-53
2022/07/30 05:36:19;;;;;;;18.50;12.50;;;;;;;;;;5034421;28;20394;-51
2022/07/30 05:38:46;;;;;;;12.07;10.73;;;;;;;;;;5034432;28;20733;-52
2022/07/30 05:41:12;;;;;;;15.10;12.60;;;;;;;;;;5033495;28;20480;-53
2022/07/30 05:43:38;;;;;;;13.80;11.17;;;;;;;;;;5033441;28;20403;-51
2022/07/30 05:46:03;;;;;;;15.03;11.20;;;;;;;;;;5033136;28;20390;-51
2022/07/30 05:48:33;;;;;;;17.27;12.47;;;;;;;;;;5033786;28;20404;-51
2022/07/30 05:51:00;;;;;;;17.63;14.97;;;;;;;;;;5032925;28;20946;-51
2022/07/30 05:53:25;;;;;;;15.93;11.67;;;;;;;;;;5034220;28;20468;-51
2022/07/30 05:55:51;;;;;;;23.90;15.70;;;;;;;;;;5033831;28;20579;-51
2022/07/30 05:58:18;;;;;;;15.03;12.10;;;;;;;;;;5033928;28;20406;-51
2022/07/30 06:00:44;;;;;;;19.60;14.00;;;;;;;;;;5032907;28;20467;-51
2022/07/30 06:03:10;;;;;;;21.90;15.50;;;;;;;;;;5033557;28;20447;-52
2022/07/30 06:05:36;;;;;;;29.33;16.97;;;;;;;;;;5033935;28;20390;-51
2022/07/30 06:08:03;;;;;;;33.13;18.53;;;;;;;;;;5033959;28;20417;-51
2022/07/30 06:10:29;;;;;;;28.57;17.30;;;;;;;;;;5032520;28;20447;-52
2022/07/30 06:12:55;;;;;;;25.20;16.53;;;;;;;;;;5033745;28;20456;-51
2022/07/30 06:15:20;;;;;;;29.60;17.90;;;;;;;;;;5030380;28;20433;-52
2022/07/30 06:17:47;;;;;;;30.07;17.90;;;;;;;;;;5030377;28;21026;-52
2022/07/30 06:20:14;;;;;;;28.57;17.73;;;;;;;;;;5021824;28;20458;-52
2022/07/30 06:22:40;;;;;;;31.07;17.60;;;;;;;;;;5033265;28;20513;-51
2022/07/30 06:25:07;;;;;;;30.60;18.80;;;;;;;;;;5033507;28;20384;-51
2022/07/30 06:27:33;;;;;;;33.67;20.77;;;;;;;;;;5033349;28;20417;-51
2022/07/30 06:30:10;;;;;;;39.00;19.27;;;;;;;;;;5032479;28;20465;-51
2022/07/30 06:32:36;;;;;;;28.83;16.53;;;;;;;;;;5033606;28;20410;-52
2022/07/30 06:35:03;;;;;;;35.17;20.10;;;;;;;;;;5033330;28;20917;-51
2022/07/30 06:37:29;;;;;;;33.60;18.47;;;;;;;;;;5033400;28;20391;-51
2022/07/30 06:39:55;;;;;;;26.90;17.27;;;;;;;;;;5032232;28;20457;-52
2022/07/30 06:42:21;;;;;;;32.63;18.03;;;;;;;;;;5033246;28;20406;-52
2022/07/30 06:44:47;;;;;;;30.63;17.43;;;;;;;;;;5032288;28;20425;-51
2022/07/30 06:47:13;;;;;;;29.83;19.20;;;;;;;;;;5033307;28;20406;-51
2022/07/30 06:49:39;;;;;;;30.40;19.63;;;;;;;;;;5032257;28;20884;-54
2022/07/30 06:52:05;;;;;;;31.73;20.97;;;;;;;;;;5032889;28;20419;-53
2022/07/30 06:54:31;;;;;;;30.70;21.37;;;;;;;;;;5039545;28;20468;-52
2022/07/30 06:56:57;;;;;;;28.73;20.90;;;;;;;;;;5032511;28;20442;-52
2022/07/30 06:59:23;;;;;;;31.40;21.13;;;;;;;;;;5032564;28;20455;-52
2022/07/30 07:01:52;;;;;;;37.27;22.30;;;;;;;;;;5032248;28;20418;-52
2022/07/30 07:04:18;;;;;;;35.57;24.27;;;;;;;;;;5033170;28;20876;-50
2022/07/30 07:06:44;;;;;;;32.50;24.83;;;;;;;;;;5031425;28;20503;-52
2022/07/30 07:09:11;;;;;;;37.67;26.90;;;;;;;;;;5032667;28;20962;-51
2022/07/30 07:11:37;;;;;;;39.47;26.77;;;;;;;;;;5031690;28;20441;-52
2022/07/30 07:14:03;;;;;;;38.87;27.90;;;;;;;;;;5032190;28;20428;-51
2022/07/30 07:16:29;;;;;;;40.80;27.77;;;;;;;;;;5031681;28;20420;-51
2022/07/30 07:18:55;;;;;;;40.43;27.90;;;;;;;;;;5032571;28;20433;-52
2022/07/30 07:21:22;;;;;;;41.87;29.20;;;;;;;;;;5031408;28;20491;-51
2022/07/30 07:23:48;;;;;;;38.37;28.20;;;;;;;;;;5032567;28;20420;-51
2022/07/30 07:26:15;;;;;;;46.50;28.83;;;;;;;;;;5032445;28;20551;-51
2022/07/30 07:28:41;;;;;;;42.53;32.50;;;;;;;;;;5032561;28;20430;-51
2022/07/30 07:31:07;;;;;;;43.80;29.70;;;;;;;;;;5031286;28;20499;-51
2022/07/30 07:33:33;;;;;;;41.50;30.73;;;;;;;;;;5032419;28;20419;-51
2022/07/30 07:35:59;;;;;;;43.33;30.87;;;;;;;;;;5032246;28;20495;-51
2022/07/30 07:38:25;;;;;;;47.20;32.67;;;;;;;;;;5032274;28;20472;-51
2022/07/30 07:40:52;;;;;;;45.73;33.33;;;;;;;;;;5030985;28;20480;-50
2022/07/30 07:43:18;;;;;;;44.43;31.03;;;;;;;;;;5032157;28;20412;-51
2022/07/30 07:45:44;;;;;;;42.57;31.40;;;;;;;;;;5031482;28;20425;-51
2022/07/30 07:48:10;;;;;;;45.47;33.03;;;;;;;;;;5032223;28;20417;-51
2022/07/30 07:50:36;;;;;;;50.60;35.10;;;;;;;;;;5032094;28;20481;-51
2022/07/30 07:53:03;;;;;;;50.47;35.93;;;;;;;;;;5031946;28;20429;-50
2022/07/30 07:55:29;;;;;;;49.30;32.90;;;;;;;;;;5032427;28;20405;-50
2022/07/30 07:57:55;;;;;;;45.43;32.00;;;;;;;;;;5032678;28;20433;-48
2022/07/30 08:00:21;;;;;;;40.03;30.10;;;;;;;;;;5031345;28;20456;-48
2022/07/30 08:02:47;;;;;;;35.47;26.40;;;;;;;;;;5029319;28;20859;-49
2022/07/30 08:05:14;;;;;;;40.63;25.20;;;;;;;;;;5032974;28;20411;-49
2022/07/30 08:07:40;;;;;;;31.57;22.27;;;;;;;;;;5032191;28;20768;-50
2022/07/30 08:10:06;;;;;;;32.50;20.07;;;;;;;;;;5030946;28;20965;-50
2022/07/30 08:12:32;;;;;;;32.57;22.50;;;;;;;;;;5032189;28;20493;-49
2022/07/30 08:14:58;;;;;;;28.27;20.53;;;;;;;;;;5031647;28;20427;-49
2022/07/30 08:17:24;;;;;;;35.40;22.10;;;;;;;;;;5032024;28;20504;-50
2022/07/30 08:19:50;;;;;;;35.83;21.63;;;;;;;;;;5031085;28;21031;-51
2022/07/30 08:22:17;;;;;;;38.83;23.67;;;;;;;;;;5031386;28;20505;-50
2022/07/30 08:24:43;;;;;;;28.93;21.00;;;;;;;;;;5031642;28;20399;-51
2022/07/30 08:27:09;;;;;;;39.33;23.30;;;;;;;;;;5031515;28;20913;-49
2022/07/30 08:29:35;;;;;;;35.27;23.00;;;;;;;;;;5031257;28;20437;-49
2022/07/30 08:32:01;;;;;;;42.30;23.87;;;;;;;;;;5031076;28;20464;-49
2022/07/30 08:34:28;;;;;;;41.03;24.73;;;;;;;;;;5031658;28;20453;-50
2022/07/30 08:36:54;;;;;;;42.87;27.33;;;;;;;;;;5031327;28;20407;-50
2022/07/30 08:39:20;;;;;;;48.23;27.63;;;;;;;;;;5031732;28;20430;-51
2022/07/30 08:41:46;;;;;;;40.33;25.90;;;;;;;;;;5031138;28;20458;-50
2022/07/30 08:44:12;;;;;;;46.33;25.30;;;;;;;;;;5031520;28;20960;-49
2022/07/30 08:46:42;;;;;;;43.87;25.90;;;;;;;;;;5030717;28;20426;-50
2022/07/30 08:49:09;;;;;;;45.30;26.10;;;;;;;;;;5031306;28;20988;-50
2022/07/30 08:51:35;;;;;;;46.00;27.93;;;;;;;;;;5029950;28;20425;-50
2022/07/30 08:54:02;;;;;;;45.63;27.30;;;;;;;;;;5031518;28;20394;-50
2022/07/30 08:56:28;;;;;;;46.77;28.10;;;;;;;;;;5031079;28;20987;-51
2022/07/30 08:58:55;;;;;;;44.60;27.00;;;;;;;;;;5031841;28;20870;-50
2022/07/30 09:01:21;;;;;;;43.47;27.07;;;;;;;;;;5030877;28;20450;-52
2022/07/30 09:03:47;;;;;;;47.10;28.27;;;;;;;;;;5032549;28;20505;-50
2022/07/30 09:06:14;;;;;;;46.63;29.43;;;;;;;;;;5033292;28;20447;-51
2022/07/30 09:08:40;;;;;;;44.20;28.27;;;;;;;;;;5033043;28;20406;-50
2022/07/30 09:11:06;;;;;;;49.53;26.00;;;;;;;;;;5031309;28;20438;-52
2022/07/30 09:13:34;;;;;;;44.83;27.17;;;;;;;;;;5032104;28;20452;-49
2022/07/30 09:16:00;;;;;;;41.60;23.40;;;;;;;;;;5031663;28;20905;-52
2022/07/30 09:18:28;;;;;;;39.00;22.90;;;;;;;;;;5031646;28;20417;-50
2022/07/30 09:20:54;;;;;;;39.33;22.80;;;;;;;;;;5030945;28;20466;-52
2022/07/30 09:23:20;;;;;;;30.07;21.10;;;;;;;;;;5036016;28;20426;-53
2022/07/30 09:25:47;;;;;;;35.70;20.50;;;;;;;;;;5035890;28;20398;-49
2022/07/30 09:28:13;;;;;;;33.40;21.40;;;;;;;;;;5035680;28;20893;-50
2022/07/30 09:30:43;;;;;;;33.57;20.83;;;;;;;;;;5034653;28;21007;-51
2022/07/30 09:33:09;;;;;;;32.03;20.50;;;;;;;;;;5036116;28;20410;-52
2022/07/30 09:35:35;;;;;;;31.87;18.53;;;;;;;;;;5037227;28;20597;-52
2022/07/30 09:38:03;;;;;;;24.93;16.90;;;;;;;;;;5036685;28;20429;-51
2022/07/30 09:40:29;;;;;;;20.63;17.23;;;;;;;;;;5033832;28;20472;-49
2022/07/30 09:43:08;;;;;;;24.10;16.07;;;;;;;;;;5036133;28;20505;-50
2022/07/30 09:45:34;;;;;;;21.83;15.17;;;;;;;;;;5036408;28;20837;-52
2022/07/30 09:48:01;;;;;;;26.50;17.27;;;;;;;;;;5036421;28;20410;-51
2022/07/30 09:50:27;;;;;;;21.80;15.80;;;;;;;;;;5035649;28;20473;-50
2022/07/30 09:52:54;;;;;;;22.33;16.50;;;;;;;;;;5035405;28;20434;-50
2022/07/30 09:55:29;;;;;;;20.13;14.10;;;;;;;;;;5036668;28;20402;-51
2022/07/30 09:57:56;;;;;;;15.00;11.47;;;;;;;;;;5036185;28;20479;-53
2022/07/30 10:00:24;;;;;;;17.30;12.47;;;;;;;;;;5035666;28;20454;-50
2022/07/30 10:02:50;;;;;;;17.33;13.47;;;;;;;;;;5036436;28;20475;-50
2022/07/30 10:05:20;;;;;;;17.97;15.00;;;;;;;;;;5036128;28;20390;-51
2022/07/30 10:07:50;;;;;;;18.93;13.23;;;;;;;;;;5034717;28;21286;-51
2022/07/30 10:10:18;;;;;;;16.13;13.37;;;;;;;;;;5034214;28;20493;-50
2022/07/30 10:12:45;;;;;;;17.47;15.00;;;;;;;;;;5034994;28;20480;-51
2022/07/30 10:15:11;;;;;;;18.00;14.00;;;;;;;;;;5035384;28;20418;-50
2022/07/30 10:17:37;;;;;;;13.37;11.40;;;;;;;;;;5036023;28;20433;-51
2022/07/30 10:20:05;;;;;;;13.10;11.67;;;;;;;;;;5035265;28;20457;-50
2022/07/30 10:22:31;;;;;;;14.73;11.40;;;;;;;;;;5036109;28;20889;-52
2022/07/30 10:24:57;;;;;;;12.90;11.00;;;;;;;;;;5035282;28;20410;-51
2022/07/30 10:27:23;;;;;;;10.47;9.40;;;;;;;;;;5034854;28;20434;-52
2022/07/30 10:29:49;;;;;;;10.93;9.83;;;;;;;;;;5034707;28;20201;-51
2022/07/30 10:32:15;;;;;;;10.17;8.77;;;;;;;;;;5034173;28;20521;-51
2022/07/30 10:34:42;;;;;;;10.17;9.10;;;;;;;;;;5035443;28;20402;-51
2022/07/30 10:37:08;;;;;;;12.47;7.10;;;;;;;;;;5034165;28;20426;-51
2022/07/30 10:39:40;;;;;;;9.13;6.60;;;;;;;;;;5033342;28;20454;-51
2022/07/30 10:42:10;;;;;;;8.80;6.80;;;;;;;;;;5034580;28;20433;-51
2022/07/30 10:44:39;;;;;;;10.70;7.43;;;;;;;;;;5042912;28;20418;-51
2022/07/30 10:47:06;;;;;;;6.90;6.30;;;;;;;;;;5034605;28;20418;-51
2022/07/30 10:49:32;;;;;;;7.40;6.00;;;;;;;;;;5032116;28;20496;-53
2022/07/30 10:51:59;;;;;;;6.03;5.20;;;;;;;;;;5038512;28;20422;-52
2022/07/30 10:54:34;;;;;;;5.83;5.20;;;;;;;;;;5036364;28;20507;-53
2022/07/30 10:57:08;;;;;;;5.03;4.20;;;;;;;;;;5027650;28;20468;-52
2022/07/30 10:59:49;;;;;;;4.77;4.47;;;;;;;;;;5013650;28;20817;-51
2022/07/30 11:02:15;;;;;;;5.30;4.83;;;;;;;;;;5023443;28;20772;-51
2022/07/30 11:04:42;;;;;;;3.63;3.33;;;;;;;;;;5033564;28;20426;-48
2022/07/30 11:07:23;;;;;;;6.77;4.30;;;;;;;;;;5032776;28;20496;-49
2022/07/30 11:09:50;;;;;;;4.40;4.00;;;;;;;;;;5031942;28;20519;-49
2022/07/30 11:12:36;;;;;;;4.20;3.37;;;;;;;;;;5032760;28;20454;-48
2022/07/30 11:15:02;;;;;;;5.40;4.87;;;;;;;;;;5032374;28;20957;-50
2022/07/30 11:17:48;;;;;;;4.60;4.20;;;;;;;;;;5032577;28;20513;-50
2022/07/30 11:20:14;;;;;;;5.33;4.40;;;;;;;;;;5031468;28;20449;-49
2022/07/30 11:22:43;;;;;;;4.83;4.33;;;;;;;;;;5032698;28;20893;-49
2022/07/30 11:25:29;;;;;;;9.13;5.90;;;;;;;;;;5032411;28;20497;-48
2022/07/30 11:27:56;;;;;;;7.97;7.20;;;;;;;;;;5021610;28;20484;-49
2022/07/30 11:30:22;;;;;;;6.17;5.43;;;;;;;;;;5031578;28;20434;-50
2022/07/30 11:32:53;;;;;;;7.50;6.70;;;;;;;;;;5040433;28;20839;-50
2022/07/30 11:35:24;;;;;;;6.60;6.10;;;;;;;;;;5033162;28;20175;-49
2022/07/30 11:37:57;;;;;;;6.70;5.23;;;;;;;;;;5033227;28;20401;-49
2022/07/30 11:40:24;;;;;;;4.90;4.60;;;;;;;;;;5028507;28;20465;-52
2022/07/30 11:42:50;;;;;;;5.17;4.67;;;;;;;;;;5023700;28;20909;-49
2022/07/30 11:45:17;;;;;;;5.00;3.97;;;;;;;;;;5032679;28;20414;-49
2022/07/30 11:47:43;;;;;;;3.67;3.37;;;;;;;;;;5018841;28;20411;-50
2022/07/30 11:50:22;;;;;;;7.50;4.43;;;;;;;;;;5012490;28;20873;-49
2022/07/30 11:52:49;;;;;;;4.80;4.30;;;;;;;;;;5016071;28;20507;-49
2022/07/30 11:55:23;;;;;;;4.90;4.50;;;;;;;;;;5032105;28;20445;-49
2022/07/30 11:57:49;;;;;;;6.43;4.40;;;;;;;;;;5029760;28;20484;-49
2022/07/30 12:00:17;;;;;;;5.67;5.27;;;;;;;;;;5012770;28;20951;-49
2022/07/30 12:02:43;;;;;;;6.20;4.90;;;;;;;;;;5013212;28;21123;-51
2022/07/30 12:05:09;;;;;;;4.27;3.97;;;;;;;;;;5015676;28;20422;-51
2022/07/30 12:07:35;;;;;;;5.70;5.30;;;;;;;;;;5032831;28;20522;-50
2022/07/30 12:10:13;;;;;;;4.77;4.47;;;;;;;;;;5032357;28;20457;-49
2022/07/30 12:12:39;;;;;;;6.53;4.77;;;;;;;;;;5031265;28;20492;-49
2022/07/30 12:15:05;;;;;;;4.30;3.90;;;;;;;;;;5031602;28;20874;-49
2022/07/30 12:17:43;;;;;;;3.27;3.00;;;;;;;;;;5032082;28;20430;-49
2022/07/30 12:20:16;;;;;;;3.47;3.17;;;;;;;;;;5030764;28;20476;-49
2022/07/30 12:22:43;;;;;;;3.30;3.00;;;;;;;;;;5012195;28;20407;-50
2022/07/30 12:25:09;;;;;;;3.67;2.43;;;;;;;;;;5012504;28;20407;-49
2022/07/30 12:27:36;;;;;;;3.30;2.23;;;;;;;;;;5032486;28;20459;-51
2022/07/30 12:30:02;;;;;;;4.93;2.40;;;;;;;;;;5031034;28;20426;-50
2022/07/30 12:32:30;;;;;;;2.50;2.30;;;;;;;;;;5032488;28;20425;-49
2022/07/30 12:34:56;;;;;;;3.10;2.40;;;;;;;;;;5031960;28;20425;-49
2022/07/30 12:37:22;;;;;;;3.03;2.23;;;;;;;;;;5032396;28;20497;-49
2022/07/30 12:39:48;;;;;;;2.33;1.97;;;;;;;;;;5031641;28;20663;-49
2022/07/30 12:42:18;;;;;;;2.70;1.73;;;;;;;;;;5025069;28;20811;-49
2022/07/30 12:44:44;;;;;;;3.93;2.37;;;;;;;;;;5032359;28;20406;-50
2022/07/30 12:47:19;;;;;;;1.97;1.87;;;;;;;;;;5033007;28;20402;-49
2022/07/30 12:49:45;;;;;;;2.70;1.90;;;;;;;;;;5031185;28;20444;-51
2022/07/30 12:52:19;;;;;;;2.63;2.30;;;;;;;;;;5031914;28;20492;-49
2022/07/30 12:54:55;;;;;;;2.40;2.20;;;;;;;;;;5032045;28;20402;-50
2022/07/30 12:57:21;;;;;;;4.20;2.20;;;;;;;;;;5035840;28;20410;-51
2022/07/30 13:00:00;;;;;;;2.80;1.97;;;;;;;;;;5035156;28;20455;-50
2022/07/30 13:02:35;;;;;;;5.33;2.33;;;;;;;;;;5016984;28;20414;-50
2022/07/30 13:05:01;;;;;;;3.67;2.30;;;;;;;;;;5017804;28;20403;-49
2022/07/30 13:07:31;;;;;;;3.63;2.10;;;;;;;;;;5036389;28;20501;-49
2022/07/30 13:10:13;;;;;;;3.53;2.33;;;;;;;;;;5034577;28;20422;-51
2022/07/30 13:12:39;;;;;;;2.27;1.90;;;;;;;;;;5035001;28;20453;-49
2022/07/30 13:15:05;;;;;;;2.00;1.80;;;;;;;;;;5034772;28;20889;-50
2022/07/30 13:17:31;;;;;;;1.80;1.70;;;;;;;;;;5035020;28;20711;-49
2022/07/30 13:19:58;;;;;;;3.80;2.30;;;;;;;;;;5034479;28;20533;-49
2022/07/30 13:22:24;;;;;;;1.70;1.60;;;;;;;;;;5035645;28;21187;-49
2022/07/30 13:24:50;;;;;;;3.00;1.80;;;;;;;;;;5036794;28;20410;-49
2022/07/30 13:27:17;;;;;;;2.33;1.87;;;;;;;;;;5036135;28;20898;-49
2022/07/30 13:29:42;;;;;;;2.00;1.80;;;;;;;;;;5035850;28;20953;-50
2022/07/30 13:32:08;;;;;;;3.23;1.80;;;;;;;;;;5036983;28;20414;-49
2022/07/30 13:34:34;;;;;;;2.40;2.20;;;;;;;;;;5036922;28;20433;-50
2022/07/30 13:37:00;;;;;;;3.50;1.80;;;;;;;;;;5036171;28;20422;-54
2022/07/30 13:39:26;;;;;;;3.70;2.17;;;;;;;;;;5036053;28;20430;-51
2022/07/30 13:41:52;;;;;;;3.03;1.90;;;;;;;;;;5031756;28;20429;-51
2022/07/30 13:44:18;;;;;;;3.73;1.90;;;;;;;;;;5030384;28;20435;-51
2022/07/30 13:46:44;;;;;;;2.00;1.73;;;;;;;;;;5025224;28;20422;-51
2022/07/30 13:49:10;;;;;;;2.40;1.63;;;;;;;;;;5035249;28;20882;-51
2022/07/30 13:51:36;;;;;;;2.47;2.20;;;;;;;;;;5034213;28;20489;-54
2022/07/30 13:54:03;;;;;;;3.50;2.87;;;;;;;;;;5032712;28;20471;-53
2022/07/30 13:56:29;;;;;;;10.57;2.20;;;;;;;;;;5014436;28;20452;-54
2022/07/30 13:58:55;;;;;;;3.90;2.23;;;;;;;;;;5020994;28;20414;-54
2022/07/30 14:01:21;;;;;;;3.13;2.20;;;;;;;;;;5033091;28;20450;-53
2022/07/30 14:03:48;;;;;;;2.83;2.00;;;;;;;;;;5033639;28;20789;-53
2022/07/30 14:06:14;;;;;;;3.40;1.90;;;;;;;;;;5033662;28;20422;-54
2022/07/30 14:08:40;;;;;;;6.43;4.27;;;;;;;;;;5033145;28;20421;-54
2022/07/30 14:11:06;;;;;;;3.43;2.60;;;;;;;;;;5033145;28;20437;-53
2022/07/30 14:13:32;;;;;;;4.13;1.83;;;;;;;;;;5031801;28;20430;-53
2022/07/30 14:15:58;;;;;;;2.23;1.67;;;;;;;;;;5033999;28;20738;-53
2022/07/30 14:18:24;;;;;;;1.50;1.40;;;;;;;;;;5033981;28;20421;-54
2022/07/30 14:20:52;;;;;;;2.13;1.70;;;;;;;;;;5012924;28;20459;-53
2022/07/30 14:23:18;;;;;;;1.80;1.70;;;;;;;;;;5014654;28;20411;-53
2022/07/30 14:25:44;;;;;;;1.50;1.40;;;;;;;;;;5033493;28;20509;-53
2022/07/30 14:28:10;;;;;;;2.53;1.90;;;;;;;;;;5034118;28;20398;-53
2022/07/30 14:30:36;;;;;;;3.97;2.47;;;;;;;;;;5031908;28;20513;-53